Saturday, July 26, 2014
11:17 UTC
  |  Log In   |  Register Free
Airport Search:

Visalia Municipal Airport
(KVIS)

Visalia Municipal Airport Diagram
No Airport Diagram Available

FAA data valid effective July 24, 2014 until September 18, 2014 (unless otherwise noted).

 
 
 
 
 
 
 
 
 
 
 
 
 
 

Current Aviation Weather for Visalia Municipal Airport (KVIS)

The most recent METAR observation for KVIS was updated at: 1035 UTC
METAR Summary (Translated METAR)
KVIS
261035Z AUTO 30004KT 10SM CLR 22/15 A2984 RMK AO1
KHJO
(11.4 nm SW from KVIS)
260953Z AUTO 31007KT 10SM CLR 26/12 A2984 RMK AO2 SLP102 T02560117
TAF Summary (Translated TAF)
KVIS
260530Z 2606/2706 00000KT P6SM SKC FM262000 31009KT P6SM BKN250
  Airport Weather Conditions for KVIS

 Current Weather at VIS
72° F
Fair
North winds at 0.0 mph
VIS NOAA Radar

Pressure: 29.84 in
Humidity: 61%
Wind: Calm
Dew Point: 57.2°F
Visibility: 10.00 mi


Airport Weather Forecast for KVIS

Translated METAR and TAF for KVIS
Translated METAR for KVIS (1111 UTC 26 July 2014)
found at http://aviationweather.gov/adds/metars/
 
METAR text: KVIS 261055Z AUTO 00000KT 10SM CLR 22/14 A2984 RMK AO1
Conditions at: KVIS (VISALIA MUNI , CA, US) observed 1055 UTC 26 July 2014
Temperature: 22.0°C (72°F)
Dewpoint: 14.0°C (57°F) [RH = 60%]
Pressure (altimeter): 29.84 inches Hg (1010.6 mb)
Winds: calm
Visibility: 10 or more miles (16+ km)
Ceiling: at least 12,000 feet AGL
Clouds: sky clear below 12,000 feet AGL
Weather: automated observation with no human augmentation;
there may or may not be significant weather present at this time
Translated TAF for KVIS
Forecast for: KVIS (VISALIA MUNI , CA, US)
TAF Text: KVIS 260530Z 2606/2706 00000KT P6SM SKC
Forecast period: 0600 to 2000 UTC 26 July 2014
Forecast type: FROM: standard forecast or significant change
Winds: calm
Visibility: 6 or more miles (10+ km)
Clouds: clear skies
Weather: no significant weather forecast for this period
TAF Text: FM262000 31009KT P6SM BKN250
Forecast period: 2000 UTC 26 July 2014 to 0600 UTC 27 July 2014
Forecast type: FROM: standard forecast or significant change
Winds: from the NW (310 degrees) at 10 MPH (9 knots; 4.7 m/s)
Visibility: 6 or more miles (10+ km)
Ceiling: 25000 feet AGL
Clouds: broken clouds at 25000 feet AGL
Weather: no significant weather forecast for this period

Find All Airport Services Find A Hotel Find A Rental Car Find A Golf Course Find A Restaurant $100 Hamburger



FBO's on the Field
FBO Company Facility Photos Services Transportation Aviation Fuel Prices: Prices include tax
Catering Weather Repair Courtesy Rental Type 100LL JetA JetA+ MOGAS 8087
 
Add another FBO Facility Photos Catering Weather Repair Courtesy Rental Type 100LL JetA JetA+ MOGAS 8087
Services Transportation Aviation Fuel Prices: Prices include tax
There are no FBO's currently reporting fuel at VIS. List your FBO now


GlobalAir.com Airport Resource Center model-print
model-print
model-print
model-print